QTR60X OTHH-EGCC
Flight info
| Callsign | QTR60X |
|---|---|
| Flight time | N/A |
| Altitude | 32000 |
| Route | LUBET2A/34L LUBET L934 DAVUS L602 TASMI DCT GADSI DCT SEPTU DCT VUSEB DCT ODALI UL852 NEGEM DCT MAXOV DCT KARIL DCT KENIN DCT LENOV DCT MODGU DCT KORUP DCT UNRIG DCT BATEL DCT PETIK DCT RAVLO Y70 OTBED |
| Aircraft | B789/H-SDE1E2E3FGHIJ2J3J4J5M1RWXY/LB1D1 |
Departure
| Time | N/A |
|---|---|
| Airport | Hamad International Airport (OTHH) |
Arrival
| Time | 2026-05-05 00:51 |
|---|---|
| Airport | Manchester Airport (EGCC) |
| Time | Latitude | Longitude | Altitude | Speed | Heading |
|---|---|---|---|---|---|
| 2026-05-05 00:17 | 52.96254 | 2.80271 | 36042 ft | 475 kts | 281° |
| 2026-05-05 00:18 | 52.96945 | 2.74910 | 36041 ft | 475 kts | 281° |
| 2026-05-05 00:18 | 52.98119 | 2.65835 | 36043 ft | 477 kts | 281° |
| 2026-05-05 00:19 | 52.99500 | 2.55070 | 36040 ft | 474 kts | 281° |
| 2026-05-05 00:19 | 53.00171 | 2.49801 | 36021 ft | 461 kts | 281° |
| 2026-05-05 00:19 | 53.00825 | 2.44660 | 35996 ft | 449 kts | 281° |
| 2026-05-05 00:19 | 53.01458 | 2.39655 | 35967 ft | 438 kts | 281° |
| 2026-05-05 00:20 | 53.02077 | 2.34748 | 35934 ft | 428 kts | 281° |
| 2026-05-05 00:20 | 53.03264 | 2.25287 | 35864 ft | 410 kts | 281° |
| 2026-05-05 00:21 | 53.04405 | 2.16131 | 35122 ft | 406 kts | 281° |
| 2026-05-05 00:21 | 53.04972 | 2.11553 | 34628 ft | 406 kts | 281° |
| 2026-05-05 00:21 | 53.05542 | 2.06934 | 34169 ft | 406 kts | 281° |
| 2026-05-05 00:21 | 53.05967 | 2.03488 | 33768 ft | 407 kts | 281° |
| 2026-05-05 00:22 | 53.06396 | 1.99940 | 33418 ft | 408 kts | 280° |
| 2026-05-05 00:22 | 53.06961 | 1.95280 | 32965 ft | 406 kts | 281° |
| 2026-05-05 00:22 | 53.07539 | 1.90676 | 32375 ft | 407 kts | 281° |
| 2026-05-05 00:22 | 53.08103 | 1.86070 | 31844 ft | 406 kts | 281° |
| 2026-05-05 00:23 | 53.08654 | 1.81475 | 31311 ft | 405 kts | 281° |
| 2026-05-05 00:23 | 53.09205 | 1.76884 | 30787 ft | 404 kts | 281° |
| 2026-05-05 00:23 | 53.09760 | 1.72296 | 30254 ft | 403 kts | 280° |
| 2026-05-05 00:23 | 53.10317 | 1.67668 | 29649 ft | 402 kts | 280° |
| 2026-05-05 00:24 | 53.10862 | 1.63099 | 29056 ft | 400 kts | 280° |
| 2026-05-05 00:24 | 53.11395 | 1.58621 | 29050 ft | 388 kts | 280° |
| 2026-05-05 00:24 | 53.11918 | 1.54219 | 29054 ft | 392 kts | 280° |
| 2026-05-05 00:25 | 53.12999 | 1.45062 | 29047 ft | 406 kts | 280° |
| 2026-05-05 00:25 | 53.14084 | 1.35820 | 29051 ft | 407 kts | 280° |
| 2026-05-05 00:26 | 53.15170 | 1.26494 | 29051 ft | 408 kts | 280° |
| 2026-05-05 00:26 | 53.16246 | 1.17197 | 29049 ft | 409 kts | 280° |
| 2026-05-05 00:27 | 53.17314 | 1.07885 | 29050 ft | 409 kts | 280° |
| 2026-05-05 00:27 | 53.18378 | 0.98551 | 29052 ft | 411 kts | 280° |
| 2026-05-05 00:28 | 53.19439 | 0.89170 | 29046 ft | 412 kts | 280° |
| 2026-05-05 00:28 | 53.20501 | 0.79715 | 29049 ft | 413 kts | 280° |
| 2026-05-05 00:29 | 53.21554 | 0.70267 | 29048 ft | 414 kts | 280° |
| 2026-05-05 00:29 | 53.22600 | 0.60806 | 29044 ft | 415 kts | 280° |
| 2026-05-05 00:30 | 53.23648 | 0.51257 | 29041 ft | 416 kts | 280° |
| 2026-05-05 00:30 | 53.24684 | 0.41742 | 29044 ft | 417 kts | 280° |
| 2026-05-05 00:31 | 53.25713 | 0.32211 | 29045 ft | 418 kts | 280° |
| 2026-05-05 00:31 | 53.26741 | 0.22622 | 29049 ft | 420 kts | 280° |
| 2026-05-05 00:31 | 53.27250 | 0.17840 | 28739 ft | 416 kts | 280° |
| 2026-05-05 00:32 | 53.27752 | 0.13118 | 27935 ft | 419 kts | 279° |
| 2026-05-05 00:32 | 53.28264 | 0.08273 | 27286 ft | 418 kts | 279° |
| 2026-05-05 00:32 | 53.28855 | 0.03529 | 26591 ft | 417 kts | 288° |
| 2026-05-05 00:32 | 53.29992 | -0.00924 | 25870 ft | 417 kts | 295° |
| 2026-05-05 00:33 | 53.31263 | -0.05285 | 25157 ft | 417 kts | 295° |
| 2026-05-05 00:33 | 53.32573 | -0.09679 | 24444 ft | 417 kts | 295° |
| 2026-05-05 00:33 | 53.33853 | -0.14038 | 23721 ft | 417 kts | 294° |
| 2026-05-05 00:33 | 53.35113 | -0.18398 | 22928 ft | 416 kts | 294° |
| 2026-05-05 00:34 | 53.36367 | -0.22728 | 22269 ft | 411 kts | 294° |
| 2026-05-05 00:34 | 53.37618 | -0.27019 | 21567 ft | 408 kts | 295° |
| 2026-05-05 00:34 | 53.38872 | -0.31333 | 20894 ft | 404 kts | 294° |
| 2026-05-05 00:34 | 53.40091 | -0.35553 | 20242 ft | 401 kts | 294° |
| 2026-05-05 00:35 | 53.41298 | -0.39736 | 19600 ft | 397 kts | 294° |
| 2026-05-05 00:35 | 53.42494 | -0.43884 | 18964 ft | 394 kts | 294° |
| 2026-05-05 00:35 | 53.43677 | -0.47992 | 18357 ft | 390 kts | 294° |
| 2026-05-05 00:35 | 53.44850 | -0.52074 | 17665 ft | 386 kts | 294° |
| 2026-05-05 00:36 | 53.46010 | -0.56118 | 16998 ft | 382 kts | 294° |
| 2026-05-05 00:36 | 53.47153 | -0.60110 | 16337 ft | 378 kts | 294° |
| 2026-05-05 00:36 | 53.48299 | -0.64122 | 15666 ft | 374 kts | 294° |
| 2026-05-05 00:36 | 53.49418 | -0.68044 | 15021 ft | 370 kts | 294° |
| 2026-05-05 00:37 | 53.50524 | -0.71926 | 14379 ft | 367 kts | 294° |
| 2026-05-05 00:37 | 53.51621 | -0.75781 | 13749 ft | 363 kts | 294° |
| 2026-05-05 00:37 | 53.52703 | -0.79593 | 13033 ft | 360 kts | 294° |
| 2026-05-05 00:37 | 53.53773 | -0.83369 | 12349 ft | 357 kts | 294° |
| 2026-05-05 00:38 | 53.54825 | -0.87086 | 12016 ft | 347 kts | 294° |
| 2026-05-05 00:38 | 53.55858 | -0.90738 | 11508 ft | 350 kts | 294° |
| 2026-05-05 00:38 | 53.56921 | -0.94512 | 11055 ft | 351 kts | 294° |
| 2026-05-05 00:38 | 53.57963 | -0.98208 | 10683 ft | 349 kts | 294° |
| 2026-05-05 00:39 | 53.58998 | -1.01889 | 10285 ft | 347 kts | 294° |
| 2026-05-05 00:39 | 53.60027 | -1.05553 | 9908 ft | 345 kts | 295° |
| 2026-05-05 00:39 | 53.60689 | -1.07984 | 9615 ft | 344 kts | 291° |
| 2026-05-05 00:39 | 53.61181 | -1.13238 | 9039 ft | 341 kts | 270° |
| 2026-05-05 00:40 | 53.61108 | -1.17109 | 9026 ft | 334 kts | 267° |
| 2026-05-05 00:40 | 53.61003 | -1.19747 | 9025 ft | 339 kts | 266° |
| 2026-05-05 00:40 | 53.60815 | -1.23788 | 8998 ft | 339 kts | 265° |
| 2026-05-05 00:40 | 53.60619 | -1.27740 | 8631 ft | 340 kts | 265° |
| 2026-05-05 00:41 | 53.60421 | -1.31688 | 8354 ft | 338 kts | 265° |
| 2026-05-05 00:41 | 53.60222 | -1.35628 | 8065 ft | 336 kts | 265° |
| 2026-05-05 00:41 | 53.60026 | -1.39539 | 7785 ft | 335 kts | 265° |
| 2026-05-05 00:41 | 53.59830 | -1.43439 | 7506 ft | 334 kts | 265° |
| 2026-05-05 00:42 | 53.59636 | -1.47315 | 7384 ft | 328 kts | 265° |
| 2026-05-05 00:42 | 53.59446 | -1.51093 | 7376 ft | 320 kts | 265° |
| 2026-05-05 00:42 | 53.59259 | -1.54785 | 7368 ft | 312 kts | 265° |
| 2026-05-05 00:42 | 53.59077 | -1.58375 | 7358 ft | 306 kts | 265° |
| 2026-05-05 00:43 | 53.58893 | -1.61973 | 7338 ft | 301 kts | 265° |
| 2026-05-05 00:43 | 53.58714 | -1.65449 | 7334 ft | 296 kts | 265° |
| 2026-05-05 00:43 | 53.58538 | -1.68867 | 7329 ft | 292 kts | 265° |
| 2026-05-05 00:43 | 53.58363 | -1.72241 | 7321 ft | 288 kts | 265° |
| 2026-05-05 00:44 | 53.58189 | -1.75582 | 7305 ft | 284 kts | 265° |
| 2026-05-05 00:44 | 53.57994 | -1.78908 | 7225 ft | 278 kts | 260° |
| 2026-05-05 00:44 | 53.57228 | -1.81806 | 6924 ft | 269 kts | 238° |
| 2026-05-05 00:44 | 53.56130 | -1.84310 | 6604 ft | 263 kts | 232° |
| 2026-05-05 00:45 | 53.54997 | -1.86677 | 6256 ft | 257 kts | 232° |
| 2026-05-05 00:45 | 53.53882 | -1.88996 | 5907 ft | 252 kts | 232° |
| 2026-05-05 00:45 | 53.52789 | -1.91269 | 5558 ft | 248 kts | 232° |
| 2026-05-05 00:45 | 53.51703 | -1.93527 | 5239 ft | 242 kts | 232° |
| 2026-05-05 00:46 | 53.50649 | -1.95718 | 4927 ft | 239 kts | 232° |
| 2026-05-05 00:46 | 53.49624 | -1.97847 | 4600 ft | 231 kts | 232° |
| 2026-05-05 00:46 | 53.48627 | -1.99916 | 4295 ft | 224 kts | 232° |
| 2026-05-05 00:46 | 53.47672 | -2.01926 | 3975 ft | 217 kts | 233° |
| 2026-05-05 00:47 | 53.46748 | -2.03847 | 3688 ft | 213 kts | 233° |
| 2026-05-05 00:47 | 53.45821 | -2.05771 | 3398 ft | 203 kts | 233° |
| 2026-05-05 00:47 | 53.44983 | -2.07530 | 3130 ft | 189 kts | 233° |
| 2026-05-05 00:47 | 53.44184 | -2.09184 | 2882 ft | 175 kts | 234° |
| 2026-05-05 00:48 | 53.43449 | -2.10726 | 2651 ft | 163 kts | 234° |
| 2026-05-05 00:48 | 53.42748 | -2.12183 | 2432 ft | 157 kts | 234° |
| 2026-05-05 00:48 | 53.42066 | -2.13595 | 2217 ft | 156 kts | 234° |
| 2026-05-05 00:48 | 53.41390 | -2.15010 | 2005 ft | 152 kts | 235° |
| 2026-05-05 00:49 | 53.40721 | -2.16406 | 1807 ft | 154 kts | 234° |
| 2026-05-05 00:49 | 53.40063 | -2.17774 | 1590 ft | 153 kts | 234° |
| 2026-05-05 00:49 | 53.39393 | -2.19165 | 1375 ft | 153 kts | 234° |
| 2026-05-05 00:49 | 53.38718 | -2.20572 | 1138 ft | 153 kts | 233° |
| 2026-05-05 00:50 | 53.38051 | -2.21959 | 915 ft | 152 kts | 232° |
| 2026-05-05 00:50 | 53.37388 | -2.23334 | 698 ft | 151 kts | 232° |
| 2026-05-05 00:50 | 53.36739 | -2.24675 | 426 ft | 148 kts | 230° |
| 2026-05-05 00:50 | 53.36114 | -2.26003 | 356 ft | 149 kts | 232° |
| 2026-05-05 00:51 | 53.35494 | -2.27262 | 248 ft | 118 kts | 231° |
| 2026-05-05 00:51 | 53.35101 | -2.28071 | 236 ft | 63 kts | 231° |
| 2026-05-05 00:51 | 53.34929 | -2.28431 | 237 ft | 21 kts | 244° |
| 2026-05-05 00:51 | 53.34855 | -2.28621 | 232 ft | 18 kts | 228° |
| 2026-05-05 00:52 | 53.34766 | -2.28767 | 228 ft | 19 kts | 224° |
| 2026-05-05 00:52 | 53.34687 | -2.28921 | 225 ft | 12 kts | 239° |
| 2026-05-05 00:52 | 53.34687 | -2.28997 | 229 ft | 3 kts | 297° |
| 2026-05-05 00:52 | 53.34698 | -2.29018 | 226 ft | 5 kts | 315° |
| 2026-05-05 00:53 | 53.34736 | -2.29060 | 225 ft | 7 kts | 328° |
| 2026-05-05 00:53 | 53.34776 | -2.29073 | 225 ft | 5 kts | 6° |
| 2026-05-05 00:53 | 53.34807 | -2.29064 | 226 ft | 4 kts | 13° |
| 2026-05-05 00:53 | 53.34818 | -2.29055 | 229 ft | 2 kts | 24° |
| 2026-05-05 00:54 | 53.34838 | -2.29037 | 226 ft | 5 kts | 34° |
| 2026-05-05 00:54 | 53.34876 | -2.28979 | 227 ft | 11 kts | 43° |
| 2026-05-05 00:54 | 53.34945 | -2.28862 | 229 ft | 14 kts | 49° |
| 2026-05-05 00:54 | 53.35027 | -2.28705 | 233 ft | 21 kts | 49° |
| 2026-05-05 00:55 | 53.35132 | -2.28503 | 236 ft | 21 kts | 50° |
| 2026-05-05 00:55 | 53.35224 | -2.28316 | 242 ft | 20 kts | 50° |
| 2026-05-05 00:55 | 53.35314 | -2.28151 | 238 ft | 19 kts | 45° |
| 2026-05-05 00:55 | 53.35401 | -2.28006 | 240 ft | 17 kts | 45° |
| 2026-05-05 00:56 | 53.35493 | -2.27918 | 242 ft | 14 kts | 13° |
| 2026-05-05 00:56 | 53.35579 | -2.27901 | 243 ft | 12 kts | 5° |
| 2026-05-05 00:56 | 53.35641 | -2.27856 | 244 ft | 8 kts | 43° |
| 2026-05-05 00:56 | 53.35676 | -2.27790 | 244 ft | 8 kts | 50° |
| 2026-05-05 00:57 | 53.35717 | -2.27710 | 245 ft | 10 kts | 43° |
| 2026-05-05 00:57 | 53.35783 | -2.27664 | 246 ft | 11 kts | 12° |
| 2026-05-05 00:57 | 53.35865 | -2.27645 | 247 ft | 13 kts | 4° |
| 2026-05-05 00:57 | 53.35963 | -2.27632 | 248 ft | 15 kts | 5° |
| 2026-05-05 00:58 | 53.36062 | -2.27645 | 248 ft | 12 kts | 323° |
| 2026-05-05 00:58 | 53.36092 | -2.27745 | 248 ft | 11 kts | 290° |
| 2026-05-05 00:58 | 53.36110 | -2.27868 | 247 ft | 12 kts | 283° |
| 2026-05-05 00:58 | 53.36159 | -2.28000 | 247 ft | 15 kts | 312° |
| 2026-05-05 00:59 | 53.36239 | -2.28137 | 247 ft | 18 kts | 315° |
| 2026-05-05 00:59 | 53.36334 | -2.28292 | 246 ft | 20 kts | 315° |
| 2026-05-05 00:59 | 53.36439 | -2.28473 | 246 ft | 23 kts | 314° |
| 2026-05-05 00:59 | 53.36494 | -2.28567 | 246 ft | 7 kts | 315° |
| 2026-05-05 01:00 | 53.36536 | -2.28641 | 246 ft | 10 kts | 312° |
| 2026-05-05 01:00 | 53.36583 | -2.28750 | 246 ft | 11 kts | 314° |
| 2026-05-05 01:00 | 53.36628 | -2.28770 | 246 ft | 4 kts | 17° |
| 2026-05-05 01:00 | 53.36642 | -2.28749 | 246 ft | 4 kts | 43° |
| 2026-05-05 01:01 | 53.36667 | -2.28709 | 267 ft | 6 kts | 44° |
| 2026-05-05 01:01 | 53.36705 | -2.28648 | 247 ft | 8 kts | 44° |
| 2026-05-05 01:01 | 53.36750 | -2.28611 | 247 ft | 7 kts | 8° |
| 2026-05-05 01:01 | 53.36790 | -2.28610 | 248 ft | 3 kts | 347° |
| 2026-05-05 01:02 | 53.36810 | -2.28624 | 248 ft | 1 kts | 332° |
| 2026-05-05 01:02 | 53.36816 | -2.28631 | 248 ft | 1 kts | 324° |
| 2026-05-05 01:02 | 53.36818 | -2.28634 | 248 ft | 0 kts | 323° |